sensor_id;sensor_type;location;lat;lon;timestamp;P1;durP1;ratioP1;P2;durP2;ratioP2
68273;SDS011;55104;47.356;19.448;2023-07-31T00:00:10;8.45;;;3.30;;
68273;SDS011;55104;47.356;19.448;2023-07-31T00:03:13;7.17;;;3.27;;
68273;SDS011;55104;47.356;19.448;2023-07-31T00:06:15;7.38;;;3.00;;
68273;SDS011;55104;47.356;19.448;2023-07-31T00:09:17;7.25;;;2.90;;
68273;SDS011;55104;47.356;19.448;2023-07-31T00:12:19;6.18;;;2.78;;
68273;SDS011;55104;47.356;19.448;2023-07-31T00:15:22;8.50;;;2.95;;
68273;SDS011;55104;47.356;19.448;2023-07-31T00:18:24;8.83;;;3.03;;
68273;SDS011;55104;47.356;19.448;2023-07-31T00:21:26;7.10;;;2.93;;
68273;SDS011;55104;47.356;19.448;2023-07-31T00:24:28;6.63;;;2.72;;
68273;SDS011;55104;47.356;19.448;2023-07-31T00:27:30;6.05;;;2.53;;
68273;SDS011;55104;47.356;19.448;2023-07-31T00:30:32;7.43;;;3.00;;
68273;SDS011;55104;47.356;19.448;2023-07-31T00:33:35;6.80;;;2.90;;
68273;SDS011;55104;47.356;19.448;2023-07-31T00:36:38;7.90;;;2.93;;
68273;SDS011;55104;47.356;19.448;2023-07-31T00:39:40;6.72;;;2.67;;
68273;SDS011;55104;47.356;19.448;2023-07-31T00:42:43;7.40;;;2.88;;
68273;SDS011;55104;47.356;19.448;2023-07-31T00:45:45;7.07;;;2.33;;
68273;SDS011;55104;47.356;19.448;2023-07-31T00:48:47;6.17;;;2.33;;
68273;SDS011;55104;47.356;19.448;2023-07-31T00:51:50;6.57;;;2.30;;
68273;SDS011;55104;47.356;19.448;2023-07-31T00:54:52;5.90;;;2.15;;
68273;SDS011;55104;47.356;19.448;2023-07-31T00:57:54;5.45;;;2.15;;
68273;SDS011;55104;47.356;19.448;2023-07-31T01:00:58;7.57;;;2.15;;
68273;SDS011;55104;47.356;19.448;2023-07-31T01:04:00;6.53;;;2.17;;
68273;SDS011;55104;47.356;19.448;2023-07-31T01:10:38;6.70;;;2.50;;
68273;SDS011;55104;47.356;19.448;2023-07-31T01:13:47;7.80;;;2.53;;
68273;SDS011;55104;47.356;19.448;2023-07-31T01:16:49;5.80;;;2.25;;
68273;SDS011;55104;47.356;19.448;2023-07-31T01:19:52;5.40;;;2.33;;
68273;SDS011;55104;47.356;19.448;2023-07-31T01:26:38;5.82;;;2.15;;
68273;SDS011;55104;47.356;19.448;2023-07-31T01:32:50;7.38;;;2.05;;
68273;SDS011;55104;47.356;19.448;2023-07-31T01:35:54;7.27;;;2.50;;
68273;SDS011;55104;47.356;19.448;2023-07-31T01:38:58;5.68;;;2.00;;
68273;SDS011;55104;47.356;19.448;2023-07-31T01:42:01;5.63;;;1.98;;
68273;SDS011;55104;47.356;19.448;2023-07-31T01:45:03;5.47;;;1.85;;
68273;SDS011;55104;47.356;19.448;2023-07-31T01:48:06;5.72;;;2.10;;
68273;SDS011;55104;47.356;19.448;2023-07-31T01:51:08;5.70;;;1.80;;
68273;SDS011;55104;47.356;19.448;2023-07-31T01:54:10;4.95;;;1.63;;
68273;SDS011;55104;47.356;19.448;2023-07-31T01:57:13;6.50;;;1.80;;
68273;SDS011;55104;47.356;19.448;2023-07-31T02:00:15;5.03;;;1.83;;
68273;SDS011;55104;47.356;19.448;2023-07-31T02:03:18;5.38;;;1.60;;
68273;SDS011;55104;47.356;19.448;2023-07-31T02:06:20;5.50;;;1.93;;
68273;SDS011;55104;47.356;19.448;2023-07-31T02:09:22;5.90;;;2.05;;
68273;SDS011;55104;47.356;19.448;2023-07-31T02:12:24;5.22;;;1.70;;
68273;SDS011;55104;47.356;19.448;2023-07-31T02:15:26;5.90;;;1.98;;
68273;SDS011;55104;47.356;19.448;2023-07-31T02:18:28;5.15;;;1.90;;
68273;SDS011;55104;47.356;19.448;2023-07-31T02:21:30;5.63;;;1.80;;
68273;SDS011;55104;47.356;19.448;2023-07-31T02:24:32;5.70;;;1.85;;
68273;SDS011;55104;47.356;19.448;2023-07-31T02:27:34;5.07;;;1.80;;
68273;SDS011;55104;47.356;19.448;2023-07-31T02:30:36;7.55;;;2.00;;
68273;SDS011;55104;47.356;19.448;2023-07-31T02:33:38;6.95;;;2.10;;
68273;SDS011;55104;47.356;19.448;2023-07-31T02:36:40;6.00;;;2.20;;
68273;SDS011;55104;47.356;19.448;2023-07-31T02:39:43;5.47;;;2.00;;
68273;SDS011;55104;47.356;19.448;2023-07-31T02:42:45;6.28;;;2.30;;
68273;SDS011;55104;47.356;19.448;2023-07-31T02:45:50;6.40;;;1.98;;
68273;SDS011;55104;47.356;19.448;2023-07-31T02:48:54;5.97;;;2.13;;
68273;SDS011;55104;47.356;19.448;2023-07-31T02:51:56;5.73;;;2.30;;
68273;SDS011;55104;47.356;19.448;2023-07-31T02:54:58;5.68;;;2.33;;
68273;SDS011;55104;47.356;19.448;2023-07-31T02:58:00;6.20;;;2.22;;
68273;SDS011;55104;47.356;19.448;2023-07-31T03:01:02;6.63;;;2.55;;
68273;SDS011;55104;47.356;19.448;2023-07-31T03:04:04;7.40;;;2.40;;
68273;SDS011;55104;47.356;19.448;2023-07-31T03:07:06;8.50;;;2.37;;
68273;SDS011;55104;47.356;19.448;2023-07-31T03:10:09;6.80;;;2.55;;
68273;SDS011;55104;47.356;19.448;2023-07-31T03:13:11;6.38;;;2.45;;
68273;SDS011;55104;47.356;19.448;2023-07-31T03:16:13;6.15;;;2.22;;
68273;SDS011;55104;47.356;19.448;2023-07-31T03:19:15;6.70;;;2.60;;
68273;SDS011;55104;47.356;19.448;2023-07-31T03:22:17;7.53;;;2.70;;
68273;SDS011;55104;47.356;19.448;2023-07-31T03:25:19;6.90;;;2.40;;
68273;SDS011;55104;47.356;19.448;2023-07-31T03:28:21;6.15;;;2.20;;
68273;SDS011;55104;47.356;19.448;2023-07-31T03:31:23;6.90;;;2.47;;
68273;SDS011;55104;47.356;19.448;2023-07-31T03:34:26;7.15;;;3.10;;
68273;SDS011;55104;47.356;19.448;2023-07-31T03:37:28;7.20;;;3.13;;
68273;SDS011;55104;47.356;19.448;2023-07-31T03:40:30;8.35;;;4.35;;
68273;SDS011;55104;47.356;19.448;2023-07-31T03:43:34;7.45;;;2.97;;
68273;SDS011;55104;47.356;19.448;2023-07-31T03:46:36;9.13;;;3.08;;
68273;SDS011;55104;47.356;19.448;2023-07-31T03:49:38;7.53;;;3.33;;
68273;SDS011;55104;47.356;19.448;2023-07-31T03:52:41;7.77;;;3.23;;
68273;SDS011;55104;47.356;19.448;2023-07-31T03:55:43;6.63;;;2.75;;
68273;SDS011;55104;47.356;19.448;2023-07-31T03:58:45;7.30;;;3.03;;
68273;SDS011;55104;47.356;19.448;2023-07-31T04:01:47;8.18;;;3.15;;
68273;SDS011;55104;47.356;19.448;2023-07-31T04:04:49;10.73;;;3.08;;
68273;SDS011;55104;47.356;19.448;2023-07-31T04:07:51;7.17;;;2.93;;
68273;SDS011;55104;47.356;19.448;2023-07-31T04:10:53;6.50;;;2.88;;
68273;SDS011;55104;47.356;19.448;2023-07-31T04:13:55;6.82;;;2.58;;
68273;SDS011;55104;47.356;19.448;2023-07-31T04:16:58;6.07;;;2.42;;
68273;SDS011;55104;47.356;19.448;2023-07-31T04:20:00;7.25;;;2.85;;
68273;SDS011;55104;47.356;19.448;2023-07-31T04:23:02;6.93;;;2.70;;
68273;SDS011;55104;47.356;19.448;2023-07-31T04:26:04;7.00;;;2.70;;
68273;SDS011;55104;47.356;19.448;2023-07-31T04:29:06;9.27;;;2.80;;
68273;SDS011;55104;47.356;19.448;2023-07-31T04:32:08;9.68;;;2.97;;
68273;SDS011;55104;47.356;19.448;2023-07-31T04:35:10;6.80;;;2.95;;
68273;SDS011;55104;47.356;19.448;2023-07-31T04:38:12;8.63;;;2.70;;
68273;SDS011;55104;47.356;19.448;2023-07-31T04:41:14;5.60;;;2.10;;
68273;SDS011;55104;47.356;19.448;2023-07-31T04:44:16;6.60;;;2.30;;
68273;SDS011;55104;47.356;19.448;2023-07-31T04:47:18;5.93;;;2.20;;
68273;SDS011;55104;47.356;19.448;2023-07-31T04:50:21;7.97;;;2.38;;
68273;SDS011;55104;47.356;19.448;2023-07-31T04:53:22;6.03;;;2.17;;
68273;SDS011;55104;47.356;19.448;2023-07-31T04:56:24;6.50;;;2.47;;
68273;SDS011;55104;47.356;19.448;2023-07-31T04:59:27;6.47;;;2.25;;
68273;SDS011;55104;47.356;19.448;2023-07-31T05:02:29;7.60;;;1.83;;
68273;SDS011;55104;47.356;19.448;2023-07-31T05:05:31;5.53;;;2.13;;
68273;SDS011;55104;47.356;19.448;2023-07-31T05:08:33;6.87;;;2.50;;
68273;SDS011;55104;47.356;19.448;2023-07-31T05:11:35;6.80;;;2.10;;
68273;SDS011;55104;47.356;19.448;2023-07-31T05:14:37;6.45;;;2.20;;
68273;SDS011;55104;47.356;19.448;2023-07-31T05:17:39;5.53;;;1.95;;
68273;SDS011;55104;47.356;19.448;2023-07-31T05:20:41;6.28;;;1.90;;
68273;SDS011;55104;47.356;19.448;2023-07-31T05:23:43;6.47;;;1.90;;
68273;SDS011;55104;47.356;19.448;2023-07-31T05:26:45;6.80;;;1.90;;
68273;SDS011;55104;47.356;19.448;2023-07-31T05:29:47;10.05;;;2.47;;
68273;SDS011;55104;47.356;19.448;2023-07-31T05:32:49;6.15;;;2.10;;
68273;SDS011;55104;47.356;19.448;2023-07-31T05:35:51;6.22;;;2.10;;
68273;SDS011;55104;47.356;19.448;2023-07-31T05:38:54;7.17;;;1.73;;
68273;SDS011;55104;47.356;19.448;2023-07-31T05:41:56;4.80;;;1.77;;
68273;SDS011;55104;47.356;19.448;2023-07-31T05:44:58;5.10;;;1.55;;
68273;SDS011;55104;47.356;19.448;2023-07-31T05:48:00;5.20;;;1.58;;
68273;SDS011;55104;47.356;19.448;2023-07-31T05:51:02;5.32;;;1.33;;
68273;SDS011;55104;47.356;19.448;2023-07-31T05:54:04;5.90;;;1.70;;
68273;SDS011;55104;47.356;19.448;2023-07-31T05:57:07;5.33;;;1.50;;
68273;SDS011;55104;47.356;19.448;2023-07-31T06:00:09;6.40;;;1.60;;
68273;SDS011;55104;47.356;19.448;2023-07-31T06:03:11;3.45;;;1.02;;
68273;SDS011;55104;47.356;19.448;2023-07-31T06:06:14;4.82;;;1.23;;
68273;SDS011;55104;47.356;19.448;2023-07-31T06:09:16;5.03;;;1.30;;
68273;SDS011;55104;47.356;19.448;2023-07-31T06:12:18;4.20;;;1.00;;
68273;SDS011;55104;47.356;19.448;2023-07-31T06:15:20;4.68;;;1.10;;
68273;SDS011;55104;47.356;19.448;2023-07-31T06:18:22;4.55;;;1.10;;
68273;SDS011;55104;47.356;19.448;2023-07-31T06:21:24;4.78;;;1.00;;
68273;SDS011;55104;47.356;19.448;2023-07-31T06:24:27;3.43;;;1.00;;
68273;SDS011;55104;47.356;19.448;2023-07-31T06:27:30;3.47;;;0.93;;
68273;SDS011;55104;47.356;19.448;2023-07-31T06:30:32;4.47;;;1.40;;
68273;SDS011;55104;47.356;19.448;2023-07-31T06:33:34;3.38;;;0.75;;
68273;SDS011;55104;47.356;19.448;2023-07-31T06:36:36;3.15;;;0.90;;
68273;SDS011;55104;47.356;19.448;2023-07-31T06:39:39;3.73;;;0.93;;
68273;SDS011;55104;47.356;19.448;2023-07-31T06:42:41;4.13;;;0.73;;
68273;SDS011;55104;47.356;19.448;2023-07-31T06:45:43;5.80;;;0.90;;
68273;SDS011;55104;47.356;19.448;2023-07-31T06:48:46;5.57;;;1.00;;
68273;SDS011;55104;47.356;19.448;2023-07-31T06:51:48;6.07;;;1.00;;
68273;SDS011;55104;47.356;19.448;2023-07-31T06:55:03;3.60;;;0.93;;
68273;SDS011;55104;47.356;19.448;2023-07-31T06:58:06;4.00;;;1.10;;
68273;SDS011;55104;47.356;19.448;2023-07-31T07:01:08;4.30;;;1.05;;
68273;SDS011;55104;47.356;19.448;2023-07-31T07:04:10;5.70;;;0.90;;
68273;SDS011;55104;47.356;19.448;2023-07-31T07:07:12;4.68;;;0.80;;
68273;SDS011;55104;47.356;19.448;2023-07-31T07:10:15;4.77;;;1.23;;
68273;SDS011;55104;47.356;19.448;2023-07-31T07:13:17;4.83;;;0.90;;
68273;SDS011;55104;47.356;19.448;2023-07-31T07:16:23;3.83;;;0.90;;
68273;SDS011;55104;47.356;19.448;2023-07-31T07:19:25;3.75;;;0.80;;
68273;SDS011;55104;47.356;19.448;2023-07-31T07:22:27;3.78;;;0.88;;
68273;SDS011;55104;47.356;19.448;2023-07-31T07:25:31;3.33;;;0.90;;
68273;SDS011;55104;47.356;19.448;2023-07-31T07:28:33;5.07;;;1.10;;
68273;SDS011;55104;47.356;19.448;2023-07-31T07:31:35;3.55;;;0.95;;
68273;SDS011;55104;47.356;19.448;2023-07-31T07:34:37;6.15;;;0.77;;
68273;SDS011;55104;47.356;19.448;2023-07-31T07:37:40;4.60;;;0.90;;
68273;SDS011;55104;47.356;19.448;2023-07-31T07:40:42;4.13;;;1.20;;
68273;SDS011;55104;47.356;19.448;2023-07-31T07:43:44;3.53;;;0.97;;
68273;SDS011;55104;47.356;19.448;2023-07-31T07:46:46;3.50;;;0.98;;
68273;SDS011;55104;47.356;19.448;2023-07-31T07:49:48;3.80;;;1.10;;
68273;SDS011;55104;47.356;19.448;2023-07-31T07:52:54;4.65;;;1.00;;
68273;SDS011;55104;47.356;19.448;2023-07-31T07:55:56;4.20;;;1.10;;
68273;SDS011;55104;47.356;19.448;2023-07-31T07:58:58;4.00;;;0.90;;
68273;SDS011;55104;47.356;19.448;2023-07-31T08:02:00;3.88;;;1.23;;
68273;SDS011;55104;47.356;19.448;2023-07-31T08:05:02;3.83;;;1.10;;
68273;SDS011;55104;47.356;19.448;2023-07-31T08:08:05;3.72;;;0.85;;
68273;SDS011;55104;47.356;19.448;2023-07-31T08:11:07;3.40;;;0.87;;
68273;SDS011;55104;47.356;19.448;2023-07-31T08:14:09;5.87;;;1.40;;
68273;SDS011;55104;47.356;19.448;2023-07-31T08:17:11;5.60;;;1.33;;
68273;SDS011;55104;47.356;19.448;2023-07-31T08:20:13;3.83;;;1.20;;
68273;SDS011;55104;47.356;19.448;2023-07-31T08:23:16;4.93;;;1.10;;
68273;SDS011;55104;47.356;19.448;2023-07-31T08:26:18;4.23;;;0.90;;
68273;SDS011;55104;47.356;19.448;2023-07-31T08:29:21;3.43;;;0.90;;
68273;SDS011;55104;47.356;19.448;2023-07-31T08:32:25;4.40;;;1.23;;
68273;SDS011;55104;47.356;19.448;2023-07-31T08:35:27;4.40;;;1.13;;
68273;SDS011;55104;47.356;19.448;2023-07-31T08:38:30;5.07;;;1.20;;
68273;SDS011;55104;47.356;19.448;2023-07-31T08:41:37;4.80;;;0.90;;
68273;SDS011;55104;47.356;19.448;2023-07-31T08:44:41;4.00;;;0.90;;
68273;SDS011;55104;47.356;19.448;2023-07-31T08:47:47;4.78;;;1.20;;
68273;SDS011;55104;47.356;19.448;2023-07-31T08:50:54;3.08;;;0.82;;
68273;SDS011;55104;47.356;19.448;2023-07-31T08:53:56;5.57;;;1.20;;
68273;SDS011;55104;47.356;19.448;2023-07-31T08:56:59;9.87;;;1.03;;
68273;SDS011;55104;47.356;19.448;2023-07-31T09:00:06;5.93;;;1.20;;
68273;SDS011;55104;47.356;19.448;2023-07-31T09:03:12;5.32;;;0.95;;
68273;SDS011;55104;47.356;19.448;2023-07-31T09:06:18;3.20;;;0.85;;
68273;SDS011;55104;47.356;19.448;2023-07-31T09:09:22;5.03;;;1.08;;
68273;SDS011;55104;47.356;19.448;2023-07-31T09:12:25;5.70;;;0.90;;
68273;SDS011;55104;47.356;19.448;2023-07-31T09:15:27;5.77;;;1.07;;
68273;SDS011;55104;47.356;19.448;2023-07-31T09:19:00;3.28;;;1.00;;
68273;SDS011;55104;47.356;19.448;2023-07-31T09:22:04;4.28;;;0.80;;
68273;SDS011;55104;47.356;19.448;2023-07-31T09:25:25;3.42;;;1.10;;
68273;SDS011;55104;47.356;19.448;2023-07-31T09:28:30;4.07;;;1.00;;
68273;SDS011;55104;47.356;19.448;2023-07-31T09:31:41;3.93;;;1.10;;
68273;SDS011;55104;47.356;19.448;2023-07-31T09:34:45;3.92;;;0.82;;
68273;SDS011;55104;47.356;19.448;2023-07-31T09:37:55;4.93;;;1.05;;
68273;SDS011;55104;47.356;19.448;2023-07-31T09:41:00;4.13;;;0.90;;
68273;SDS011;55104;47.356;19.448;2023-07-31T09:44:02;3.13;;;0.87;;
68273;SDS011;55104;47.356;19.448;2023-07-31T09:47:04;3.97;;;1.00;;
68273;SDS011;55104;47.356;19.448;2023-07-31T09:50:07;4.35;;;1.00;;
68273;SDS011;55104;47.356;19.448;2023-07-31T09:53:10;3.63;;;0.80;;
68273;SDS011;55104;47.356;19.448;2023-07-31T09:56:12;4.13;;;0.70;;
68273;SDS011;55104;47.356;19.448;2023-07-31T09:59:15;5.13;;;1.20;;
68273;SDS011;55104;47.356;19.448;2023-07-31T10:02:21;3.93;;;1.10;;
68273;SDS011;55104;47.356;19.448;2023-07-31T10:05:24;5.40;;;1.35;;
68273;SDS011;55104;47.356;19.448;2023-07-31T10:08:32;2.85;;;0.90;;
68273;SDS011;55104;47.356;19.448;2023-07-31T10:11:38;6.05;;;1.23;;
68273;SDS011;55104;47.356;19.448;2023-07-31T10:14:45;4.90;;;1.10;;
68273;SDS011;55104;47.356;19.448;2023-07-31T10:17:48;4.00;;;1.10;;
68273;SDS011;55104;47.356;19.448;2023-07-31T10:20:51;2.95;;;0.90;;
68273;SDS011;55104;47.356;19.448;2023-07-31T10:23:56;3.85;;;0.98;;
68273;SDS011;55104;47.356;19.448;2023-07-31T10:27:00;5.63;;;1.30;;
68273;SDS011;55104;47.356;19.448;2023-07-31T10:30:04;4.77;;;1.03;;
68273;SDS011;55104;47.356;19.448;2023-07-31T10:33:09;6.27;;;1.30;;
68273;SDS011;55104;47.356;19.448;2023-07-31T10:36:19;8.82;;;1.10;;
68273;SDS011;55104;47.356;19.448;2023-07-31T10:39:37;4.72;;;1.20;;
68273;SDS011;55104;47.356;19.448;2023-07-31T10:42:48;5.05;;;0.90;;
68273;SDS011;55104;47.356;19.448;2023-07-31T10:45:51;4.17;;;0.83;;
68273;SDS011;55104;47.356;19.448;2023-07-31T10:48:57;4.13;;;1.00;;
68273;SDS011;55104;47.356;19.448;2023-07-31T10:52:03;3.60;;;1.00;;
68273;SDS011;55104;47.356;19.448;2023-07-31T10:55:15;2.88;;;0.90;;
68273;SDS011;55104;47.356;19.448;2023-07-31T10:58:28;3.50;;;0.82;;
68273;SDS011;55104;47.356;19.448;2023-07-31T11:05:08;5.20;;;1.00;;
68273;SDS011;55104;47.356;19.448;2023-07-31T11:08:11;4.97;;;1.10;;
68273;SDS011;55104;47.356;19.448;2023-07-31T11:11:22;3.97;;;0.93;;
68273;SDS011;55104;47.356;19.448;2023-07-31T11:14:25;3.70;;;0.90;;
68273;SDS011;55104;47.356;19.448;2023-07-31T11:17:27;5.83;;;1.10;;
68273;SDS011;55104;47.356;19.448;2023-07-31T11:20:29;6.37;;;1.10;;
68273;SDS011;55104;47.356;19.448;2023-07-31T11:23:32;3.65;;;1.05;;
68273;SDS011;55104;47.356;19.448;2023-07-31T11:26:35;4.60;;;1.10;;
68273;SDS011;55104;47.356;19.448;2023-07-31T11:29:37;4.68;;;0.90;;
68273;SDS011;55104;47.356;19.448;2023-07-31T11:32:39;3.90;;;1.00;;
68273;SDS011;55104;47.356;19.448;2023-07-31T11:35:42;3.60;;;0.90;;
68273;SDS011;55104;47.356;19.448;2023-07-31T11:38:47;4.32;;;0.93;;
68273;SDS011;55104;47.356;19.448;2023-07-31T11:41:49;4.57;;;1.00;;
68273;SDS011;55104;47.356;19.448;2023-07-31T11:44:55;3.92;;;1.00;;
68273;SDS011;55104;47.356;19.448;2023-07-31T11:47:57;3.23;;;0.80;;
68273;SDS011;55104;47.356;19.448;2023-07-31T11:51:06;4.47;;;1.10;;
68273;SDS011;55104;47.356;19.448;2023-07-31T11:54:11;4.07;;;1.00;;
68273;SDS011;55104;47.356;19.448;2023-07-31T11:57:14;4.45;;;1.02;;
68273;SDS011;55104;47.356;19.448;2023-07-31T12:00:17;4.00;;;0.98;;
68273;SDS011;55104;47.356;19.448;2023-07-31T12:03:20;4.20;;;1.00;;
68273;SDS011;55104;47.356;19.448;2023-07-31T12:06:22;5.10;;;1.17;;
68273;SDS011;55104;47.356;19.448;2023-07-31T12:09:34;3.15;;;0.90;;
68273;SDS011;55104;47.356;19.448;2023-07-31T12:12:36;5.45;;;1.15;;
68273;SDS011;55104;47.356;19.448;2023-07-31T12:18:42;3.10;;;0.87;;
68273;SDS011;55104;47.356;19.448;2023-07-31T12:21:44;4.83;;;1.10;;
68273;SDS011;55104;47.356;19.448;2023-07-31T12:24:46;3.95;;;0.88;;
68273;SDS011;55104;47.356;19.448;2023-07-31T12:27:50;3.90;;;1.15;;
68273;SDS011;55104;47.356;19.448;2023-07-31T12:30:56;4.40;;;1.60;;
68273;SDS011;55104;47.356;19.448;2023-07-31T12:34:02;5.80;;;1.23;;
68273;SDS011;55104;47.356;19.448;2023-07-31T12:37:05;3.57;;;1.00;;
68273;SDS011;55104;47.356;19.448;2023-07-31T12:40:07;5.25;;;0.80;;
68273;SDS011;55104;47.356;19.448;2023-07-31T12:43:10;3.50;;;1.00;;
68273;SDS011;55104;47.356;19.448;2023-07-31T12:46:12;3.60;;;0.93;;
68273;SDS011;55104;47.356;19.448;2023-07-31T12:49:14;3.30;;;0.90;;
68273;SDS011;55104;47.356;19.448;2023-07-31T12:52:20;3.73;;;0.93;;
68273;SDS011;55104;47.356;19.448;2023-07-31T12:55:22;3.97;;;0.90;;
68273;SDS011;55104;47.356;19.448;2023-07-31T12:58:24;4.28;;;1.00;;
68273;SDS011;55104;47.356;19.448;2023-07-31T13:01:27;3.50;;;0.80;;
68273;SDS011;55104;47.356;19.448;2023-07-31T13:04:29;4.10;;;0.93;;
68273;SDS011;55104;47.356;19.448;2023-07-31T13:07:31;4.47;;;1.23;;
68273;SDS011;55104;47.356;19.448;2023-07-31T13:10:34;3.83;;;1.00;;
68273;SDS011;55104;47.356;19.448;2023-07-31T13:13:36;5.63;;;1.10;;
68273;SDS011;55104;47.356;19.448;2023-07-31T13:16:38;4.63;;;0.90;;
68273;SDS011;55104;47.356;19.448;2023-07-31T13:19:40;3.67;;;1.00;;
68273;SDS011;55104;47.356;19.448;2023-07-31T13:22:43;4.37;;;1.30;;
68273;SDS011;55104;47.356;19.448;2023-07-31T13:25:47;4.85;;;1.00;;
68273;SDS011;55104;47.356;19.448;2023-07-31T13:28:49;4.25;;;0.95;;
68273;SDS011;55104;47.356;19.448;2023-07-31T13:31:52;4.13;;;1.00;;
68273;SDS011;55104;47.356;19.448;2023-07-31T13:34:58;3.47;;;0.90;;
68273;SDS011;55104;47.356;19.448;2023-07-31T13:38:00;3.47;;;1.10;;
68273;SDS011;55104;47.356;19.448;2023-07-31T13:41:02;5.55;;;1.10;;
68273;SDS011;55104;47.356;19.448;2023-07-31T13:44:04;4.13;;;1.05;;
68273;SDS011;55104;47.356;19.448;2023-07-31T13:47:07;4.40;;;1.20;;
68273;SDS011;55104;47.356;19.448;2023-07-31T13:50:11;4.60;;;1.00;;
68273;SDS011;55104;47.356;19.448;2023-07-31T13:53:13;4.67;;;1.00;;
68273;SDS011;55104;47.356;19.448;2023-07-31T13:56:15;4.65;;;1.10;;
68273;SDS011;55104;47.356;19.448;2023-07-31T13:59:17;4.80;;;1.48;;
68273;SDS011;55104;47.356;19.448;2023-07-31T14:02:19;5.43;;;1.00;;
68273;SDS011;55104;47.356;19.448;2023-07-31T14:05:22;4.73;;;0.90;;
68273;SDS011;55104;47.356;19.448;2023-07-31T14:08:24;3.87;;;1.00;;
68273;SDS011;55104;47.356;19.448;2023-07-31T14:11:26;3.53;;;1.20;;
68273;SDS011;55104;47.356;19.448;2023-07-31T14:14:28;4.00;;;1.00;;
68273;SDS011;55104;47.356;19.448;2023-07-31T14:17:30;3.60;;;1.05;;
68273;SDS011;55104;47.356;19.448;2023-07-31T14:20:33;3.40;;;1.03;;
68273;SDS011;55104;47.356;19.448;2023-07-31T14:23:35;4.23;;;1.03;;
68273;SDS011;55104;47.356;19.448;2023-07-31T14:26:37;5.45;;;1.10;;
68273;SDS011;55104;47.356;19.448;2023-07-31T14:29:39;5.13;;;0.90;;
68273;SDS011;55104;47.356;19.448;2023-07-31T14:32:41;4.82;;;1.25;;
68273;SDS011;55104;47.356;19.448;2023-07-31T14:35:43;5.63;;;1.13;;
68273;SDS011;55104;47.356;19.448;2023-07-31T14:38:46;3.67;;;1.00;;
68273;SDS011;55104;47.356;19.448;2023-07-31T14:41:48;5.53;;;2.20;;
68273;SDS011;55104;47.356;19.448;2023-07-31T14:44:50;4.63;;;1.00;;
68273;SDS011;55104;47.356;19.448;2023-07-31T14:47:52;5.22;;;0.95;;
68273;SDS011;55104;47.356;19.448;2023-07-31T14:50:55;3.63;;;1.10;;
68273;SDS011;55104;47.356;19.448;2023-07-31T14:54:00;3.27;;;0.83;;
68273;SDS011;55104;47.356;19.448;2023-07-31T14:57:03;3.75;;;1.13;;
68273;SDS011;55104;47.356;19.448;2023-07-31T15:00:05;4.38;;;0.82;;
68273;SDS011;55104;47.356;19.448;2023-07-31T15:03:09;6.05;;;0.98;;
68273;SDS011;55104;47.356;19.448;2023-07-31T15:06:11;3.40;;;0.90;;
68273;SDS011;55104;47.356;19.448;2023-07-31T15:09:14;3.70;;;0.93;;
68273;SDS011;55104;47.356;19.448;2023-07-31T15:12:16;5.30;;;0.90;;
68273;SDS011;55104;47.356;19.448;2023-07-31T15:15:19;10.48;;;1.52;;
68273;SDS011;55104;47.356;19.448;2023-07-31T15:18:21;4.78;;;1.27;;
68273;SDS011;55104;47.356;19.448;2023-07-31T15:21:23;3.17;;;1.00;;
68273;SDS011;55104;47.356;19.448;2023-07-31T15:24:25;3.80;;;1.10;;
68273;SDS011;55104;47.356;19.448;2023-07-31T15:27:27;7.25;;;1.30;;
68273;SDS011;55104;47.356;19.448;2023-07-31T15:30:29;2.95;;;0.90;;
68273;SDS011;55104;47.356;19.448;2023-07-31T15:33:31;4.50;;;1.02;;
68273;SDS011;55104;47.356;19.448;2023-07-31T15:36:33;4.00;;;0.90;;
68273;SDS011;55104;47.356;19.448;2023-07-31T15:39:35;4.13;;;1.00;;
68273;SDS011;55104;47.356;19.448;2023-07-31T15:42:40;3.92;;;1.00;;
68273;SDS011;55104;47.356;19.448;2023-07-31T15:45:43;3.63;;;1.08;;
68273;SDS011;55104;47.356;19.448;2023-07-31T15:48:45;4.18;;;0.93;;
68273;SDS011;55104;47.356;19.448;2023-07-31T15:51:47;4.73;;;1.00;;
68273;SDS011;55104;47.356;19.448;2023-07-31T15:54:50;4.23;;;0.90;;
68273;SDS011;55104;47.356;19.448;2023-07-31T15:57:52;5.38;;;1.00;;
68273;SDS011;55104;47.356;19.448;2023-07-31T16:00:55;4.28;;;1.08;;
68273;SDS011;55104;47.356;19.448;2023-07-31T16:03:57;4.43;;;0.93;;
68273;SDS011;55104;47.356;19.448;2023-07-31T16:07:00;6.07;;;1.20;;
68273;SDS011;55104;47.356;19.448;2023-07-31T16:10:02;6.30;;;1.30;;
68273;SDS011;55104;47.356;19.448;2023-07-31T16:13:04;5.63;;;1.10;;
68273;SDS011;55104;47.356;19.448;2023-07-31T16:16:06;5.45;;;1.20;;
68273;SDS011;55104;47.356;19.448;2023-07-31T16:19:09;4.22;;;1.15;;
68273;SDS011;55104;47.356;19.448;2023-07-31T16:22:11;3.73;;;0.93;;
68273;SDS011;55104;47.356;19.448;2023-07-31T16:25:13;4.43;;;1.10;;
68273;SDS011;55104;47.356;19.448;2023-07-31T16:28:15;5.13;;;0.90;;
68273;SDS011;55104;47.356;19.448;2023-07-31T16:31:17;7.43;;;1.08;;
68273;SDS011;55104;47.356;19.448;2023-07-31T16:34:20;7.07;;;1.30;;
68273;SDS011;55104;47.356;19.448;2023-07-31T16:37:22;3.67;;;0.90;;
68273;SDS011;55104;47.356;19.448;2023-07-31T16:40:24;6.10;;;1.00;;
68273;SDS011;55104;47.356;19.448;2023-07-31T16:43:26;6.32;;;1.30;;
68273;SDS011;55104;47.356;19.448;2023-07-31T16:46:30;4.63;;;1.00;;
68273;SDS011;55104;47.356;19.448;2023-07-31T16:49:32;6.18;;;1.83;;
68273;SDS011;55104;47.356;19.448;2023-07-31T16:52:34;3.67;;;0.90;;
68273;SDS011;55104;47.356;19.448;2023-07-31T16:55:36;3.90;;;1.03;;
68273;SDS011;55104;47.356;19.448;2023-07-31T16:58:38;3.45;;;0.80;;
68273;SDS011;55104;47.356;19.448;2023-07-31T17:01:40;3.65;;;0.90;;
68273;SDS011;55104;47.356;19.448;2023-07-31T17:04:43;5.97;;;0.80;;
68273;SDS011;55104;47.356;19.448;2023-07-31T17:07:45;4.97;;;1.10;;
68273;SDS011;55104;47.356;19.448;2023-07-31T17:10:47;6.00;;;0.97;;
68273;SDS011;55104;47.356;19.448;2023-07-31T17:13:50;5.35;;;0.90;;
68273;SDS011;55104;47.356;19.448;2023-07-31T17:16:53;5.55;;;1.08;;
68273;SDS011;55104;47.356;19.448;2023-07-31T17:19:55;5.05;;;0.68;;
68273;SDS011;55104;47.356;19.448;2023-07-31T17:22:57;3.73;;;0.83;;
68273;SDS011;55104;47.356;19.448;2023-07-31T17:26:00;3.73;;;1.00;;
68273;SDS011;55104;47.356;19.448;2023-07-31T17:29:02;3.75;;;0.98;;
68273;SDS011;55104;47.356;19.448;2023-07-31T17:32:04;5.20;;;0.93;;
68273;SDS011;55104;47.356;19.448;2023-07-31T17:35:11;4.80;;;1.00;;
68273;SDS011;55104;47.356;19.448;2023-07-31T17:38:14;4.17;;;0.97;;
68273;SDS011;55104;47.356;19.448;2023-07-31T17:41:16;5.57;;;0.90;;
68273;SDS011;55104;47.356;19.448;2023-07-31T17:44:21;4.72;;;0.80;;
68273;SDS011;55104;47.356;19.448;2023-07-31T17:47:23;5.32;;;1.00;;
68273;SDS011;55104;47.356;19.448;2023-07-31T17:50:25;3.42;;;0.63;;
68273;SDS011;55104;47.356;19.448;2023-07-31T17:53:29;5.57;;;0.80;;
68273;SDS011;55104;47.356;19.448;2023-07-31T17:56:31;4.60;;;0.87;;
68273;SDS011;55104;47.356;19.448;2023-07-31T17:59:35;4.30;;;1.08;;
68273;SDS011;55104;47.356;19.448;2023-07-31T18:02:37;5.28;;;0.90;;
68273;SDS011;55104;47.356;19.448;2023-07-31T18:05:40;4.25;;;0.85;;
68273;SDS011;55104;47.356;19.448;2023-07-31T18:08:42;3.70;;;0.87;;
68273;SDS011;55104;47.356;19.448;2023-07-31T18:11:44;4.60;;;0.80;;
68273;SDS011;55104;47.356;19.448;2023-07-31T18:14:46;3.22;;;0.70;;
68273;SDS011;55104;47.356;19.448;2023-07-31T18:17:48;5.25;;;1.00;;
68273;SDS011;55104;47.356;19.448;2023-07-31T18:20:50;3.78;;;0.80;;